Wednesday, October 17, 2018, 4:12 AM EDT
Back to Local

KMSS, Massena International -richards Fld

Location: Massena, NY, United States Lat: 44.933
Local Time: 4:12 AM EDT ( 8:12 GMT) Lon: -74.85
Time Zone: US/Eastern Elev: 213 ft

Show me the last for .
Show Decoded

2018-10-17 03:53 METAR KMSS 170753Z AUTO 21012KT 10SM OVC065 09/04 A2977 RMK AO2 SLP083 T00940039
                 =
2018-10-17 02:53 METAR KMSS 170653Z AUTO 21012KT 10SM BKN110 09/04 A2979 RMK AO2 SLP090 T00890039
                 =
2018-10-17 01:53 METAR KMSS 170553Z AUTO 21011KT 10SM OVC070 09/05 A2982 RMK AO2 SLP099 T00890050
                 10094 20072 56026 =
2018-10-16 23:53 METAR KMSS 170353Z AUTO 20010KT 10SM OVC085 08/03 A2986 RMK AO2 SLP115 T00780033
                 =
2018-10-16 22:53 METAR KMSS 170253Z AUTO 20008KT 10SM OVC075 07/03 A2989 RMK AO2 SLP125 T00720033
                 58010 =
2018-10-16 21:53 METAR KMSS 170153Z AUTO 21008KT 10SM OVC075 08/04 A2991 RMK AO2 SLP132 T00780039
                 =
2018-10-16 20:53 METAR KMSS 170053Z AUTO 22008KT 10SM BKN085 OVC100 07/03 A2992 RMK AO2 SLP135
                 T00720028 =
2018-10-16 19:53 METAR KMSS 162353Z AUTO 21009KT 10SM BKN090 07/02 A2992 RMK AO2 SLP137 T00720017
                 10100 20067 55007 =
2018-10-16 18:53 METAR KMSS 162253Z AUTO 22011KT 10SM FEW110 07/01 A2992 RMK AO2 SLP136 T00720011
                 =
2018-10-16 17:53 METAR KMSS 162153Z AUTO 23012G24KT 10SM FEW037 SCT110 08/02 A2993 RMK AO2 SLP140
                 T00830017 =
2018-10-16 16:53 METAR KMSS 162053Z AUTO 24013G26KT 10SM SCT047 BKN120 09/01 A2994 RMK AO2 PK WND
                 23027/2015 SLP143 T00890011 56016 =
2018-10-16 15:53 METAR KMSS 161953Z AUTO 23018G24KT 10SM BKN050 OVC100 09/01 A2996 RMK AO2 SLP147
                 T00940011 =
2018-10-16 14:53 METAR KMSS 161853Z AUTO 25012G16KT 10SM BKN047 OVC055 10/01 A2996 RMK AO2 SLP149
                 T01000011 =
2018-10-16 13:53 METAR KMSS 161753Z AUTO 25014KT 10SM FEW045 OVC055 09/01 A2999 RMK AO2 SLP159
                 T00940006 10094 20044 58028 =
2018-10-16 12:53 METAR KMSS 161653Z AUTO 24011KT 10SM SCT046 OVC055 09/00 A3002 RMK AO2 SLP167
                 T00940000 =
2018-10-16 11:53 METAR KMSS 161553Z AUTO 26012G19KT 10SM BKN044 BKN050 08/00 A3006 RMK AO2 SLP181
                 T00830000 =
2018-10-16 10:53 METAR KMSS 161453Z AUTO 26012G21KT 10SM SCT034 BKN043 07/01 A3008 RMK AO2 SLP187
                 T00720006 50008 =
2018-10-16 09:53 METAR KMSS 161353Z AUTO 26013KT 10SM OVC038 06/01 A3008 RMK AO2 SLP188 T00560006
                 =
2018-10-16 08:53 METAR KMSS 161253Z AUTO 22008KT 10SM FEW033 FEW043 05/02 A3006 RMK AO2 SLP182
                 T00500022 =
2018-10-16 07:53 METAR KMSS 161153Z AUTO 23008KT 10SM SCT036 04/01 A3005 RMK AO2 SLP179 70011
                 T00440006 10056 20039 53017 =
2018-10-16 06:53 METAR KMSS 161053Z AUTO 25010KT 10SM FEW027 FEW032 04/01 A3003 RMK AO2 SLP172
                 T00390011 =
2018-10-16 05:53 METAR KMSS 160953Z AUTO 24011G19KT 10SM OVC039 05/01 A3001 RMK AO2 SLP166
                 T00500011 =
2018-10-16 04:53 METAR KMSS 160853Z AUTO 23010KT 10SM OVC043 05/01 A3000 RMK AO2 SLP161 T00500011
                 53025 =

Support USWX by starting your Amazon purchase here.